sensor_id;sensor_type;location;lat;lon;timestamp;pressure;altitude;pressure_sealevel;temperature;humidity
73700;BME280;62005;50.082;8.988;2024-02-28T00:00:26;100709.38;;;5.11;94.33
73700;BME280;62005;50.082;8.988;2024-02-28T00:02:51;100711.75;;;5.06;95.06
73700;BME280;62005;50.082;8.988;2024-02-28T00:05:17;100715.94;;;5.09;95.37
73700;BME280;62005;50.082;8.988;2024-02-28T00:07:42;100715.47;;;5.05;96.00
73700;BME280;62005;50.082;8.988;2024-02-28T00:10:08;100706.00;;;4.95;95.98
73700;BME280;62005;50.082;8.988;2024-02-28T00:12:33;100716.16;;;4.99;96.00
73700;BME280;62005;50.082;8.988;2024-02-28T00:14:59;100721.88;;;4.96;96.21
73700;BME280;62005;50.082;8.988;2024-02-28T00:17:25;100725.75;;;4.94;96.23
73700;BME280;62005;50.082;8.988;2024-02-28T00:19:50;100712.56;;;4.84;96.33
73700;BME280;62005;50.082;8.988;2024-02-28T00:22:16;100718.97;;;4.83;96.96
73700;BME280;62005;50.082;8.988;2024-02-28T00:24:41;100719.97;;;4.82;96.71
73700;BME280;62005;50.082;8.988;2024-02-28T00:27:07;100727.34;;;4.80;96.29
73700;BME280;62005;50.082;8.988;2024-02-28T00:29:32;100725.66;;;4.79;96.40
73700;BME280;62005;50.082;8.988;2024-02-28T00:31:57;100722.69;;;4.74;96.82
73700;BME280;62005;50.082;8.988;2024-02-28T00:34:23;100707.88;;;4.64;96.56
73700;BME280;62005;50.082;8.988;2024-02-28T00:36:48;100725.09;;;4.69;96.92
73700;BME280;62005;50.082;8.988;2024-02-28T00:39:14;100725.41;;;4.66;96.78
73700;BME280;62005;50.082;8.988;2024-02-28T00:41:39;100731.59;;;4.67;96.21
73700;BME280;62005;50.082;8.988;2024-02-28T00:44:04;100734.94;;;4.69;96.75
73700;BME280;62005;50.082;8.988;2024-02-28T00:46:30;100741.16;;;4.69;96.88
73700;BME280;62005;50.082;8.988;2024-02-28T00:48:55;100731.84;;;4.57;96.25
73700;BME280;62005;50.082;8.988;2024-02-28T00:51:20;100731.53;;;4.52;96.35
73700;BME280;62005;50.082;8.988;2024-02-28T00:53:46;100746.91;;;4.50;97.02
73700;BME280;62005;50.082;8.988;2024-02-28T00:56:11;100746.91;;;4.50;96.68
73700;BME280;62005;50.082;8.988;2024-02-28T00:58:36;100753.78;;;4.45;96.89
73700;BME280;62005;50.082;8.988;2024-02-28T01:01:03;100761.69;;;4.46;96.90
73700;BME280;62005;50.082;8.988;2024-02-28T01:03:29;100769.38;;;4.41;97.41
73700;BME280;62005;50.082;8.988;2024-02-28T01:05:54;100762.69;;;4.37;97.12
73700;BME280;62005;50.082;8.988;2024-02-28T01:08:19;100774.75;;;4.41;97.25
73700;BME280;62005;50.082;8.988;2024-02-28T01:10:45;100766.41;;;4.36;97.63
73700;BME280;62005;50.082;8.988;2024-02-28T01:13:11;100774.75;;;4.33;96.47
73700;BME280;62005;50.082;8.988;2024-02-28T01:15:39;100771.91;;;4.27;96.77
73700;BME280;62005;50.082;8.988;2024-02-28T01:18:04;100780.78;;;4.27;97.48
73700;BME280;62005;50.082;8.988;2024-02-28T01:20:29;100782.63;;;4.27;97.54
73700;BME280;62005;50.082;8.988;2024-02-28T01:22:55;100766.44;;;4.20;97.70
73700;BME280;62005;50.082;8.988;2024-02-28T01:25:20;100777.78;;;4.22;98.06
73700;BME280;62005;50.082;8.988;2024-02-28T01:27:46;100783.16;;;4.22;98.00
73700;BME280;62005;50.082;8.988;2024-02-28T01:30:11;100775.47;;;4.19;98.47
73700;BME280;62005;50.082;8.988;2024-02-28T01:32:36;100772.47;;;4.14;98.10
73700;BME280;62005;50.082;8.988;2024-02-28T01:35:02;100780.81;;;4.19;98.43
73700;BME280;62005;50.082;8.988;2024-02-28T01:37:28;100780.69;;;4.13;98.47
73700;BME280;62005;50.082;8.988;2024-02-28T01:39:54;100797.56;;;4.13;97.81
73700;BME280;62005;50.082;8.988;2024-02-28T01:42:19;100797.88;;;4.10;98.48
73700;BME280;62005;50.082;8.988;2024-02-28T01:44:47;100786.53;;;4.00;98.15
73700;BME280;62005;50.082;8.988;2024-02-28T01:47:14;100777.72;;;3.91;98.43
73700;BME280;62005;50.082;8.988;2024-02-28T01:49:41;100785.56;;;3.93;98.62
73700;BME280;62005;50.082;8.988;2024-02-28T01:52:08;100795.75;;;3.97;98.08
73700;BME280;62005;50.082;8.988;2024-02-28T01:54:34;100797.56;;;3.97;97.87
73700;BME280;62005;50.082;8.988;2024-02-28T01:57:00;100797.56;;;3.97;98.40
73700;BME280;62005;50.082;8.988;2024-02-28T01:59:27;100799.59;;;3.95;98.89
73700;BME280;62005;50.082;8.988;2024-02-28T02:01:54;100797.94;;;3.94;98.63
73700;BME280;62005;50.082;8.988;2024-02-28T02:04:19;100799.94;;;3.92;98.54
73700;BME280;62005;50.082;8.988;2024-02-28T02:06:45;100798.97;;;3.85;98.11
73700;BME280;62005;50.082;8.988;2024-02-28T02:09:12;100800.97;;;3.83;98.49
73700;BME280;62005;50.082;8.988;2024-02-28T02:11:38;100803.13;;;3.87;98.53
73700;BME280;62005;50.082;8.988;2024-02-28T02:14:04;100776.06;;;3.66;99.05
73700;BME280;62005;50.082;8.988;2024-02-28T02:16:29;100797.94;;;3.78;99.59
73700;BME280;62005;50.082;8.988;2024-02-28T02:18:55;100801.59;;;3.77;100.00
73700;BME280;62005;50.082;8.988;2024-02-28T02:21:23;100796.59;;;3.74;99.71
73700;BME280;62005;50.082;8.988;2024-02-28T02:23:52;100796.25;;;3.77;99.80
73700;BME280;62005;50.082;8.988;2024-02-28T02:26:18;100795.94;;;3.80;99.94
73700;BME280;62005;50.082;8.988;2024-02-28T02:28:43;100790.91;;;3.77;100.00
73700;BME280;62005;50.082;8.988;2024-02-28T02:31:11;100795.28;;;3.70;99.46
73700;BME280;62005;50.082;8.988;2024-02-28T02:33:36;100807.31;;;3.74;99.93
73700;BME280;62005;50.082;8.988;2024-02-28T02:36:02;100793.94;;;3.66;99.53
73700;BME280;62005;50.082;8.988;2024-02-28T02:38:27;100804.28;;;3.69;99.90
73700;BME280;62005;50.082;8.988;2024-02-28T02:40:52;100797.28;;;3.68;99.76
73700;BME280;62005;50.082;8.988;2024-02-28T02:43:18;100794.63;;;3.60;99.83
73700;BME280;62005;50.082;8.988;2024-02-28T02:45:44;100792.94;;;3.59;99.39
73700;BME280;62005;50.082;8.988;2024-02-28T02:48:09;100783.25;;;3.50;99.22
73700;BME280;62005;50.082;8.988;2024-02-28T02:50:35;100798.28;;;3.59;99.05
73700;BME280;62005;50.082;8.988;2024-02-28T02:53:01;100787.75;;;3.49;99.66
73700;BME280;62005;50.082;8.988;2024-02-28T02:55:27;100814.31;;;3.59;99.31
73700;BME280;62005;50.082;8.988;2024-02-28T02:57:52;100816.34;;;3.57;99.05
73700;BME280;62005;50.082;8.988;2024-02-28T03:00:18;100818.00;;;3.58;99.84
73700;BME280;62005;50.082;8.988;2024-02-28T03:02:43;100817.31;;;3.56;100.00
73700;BME280;62005;50.082;8.988;2024-02-28T03:05:09;100821.69;;;3.57;100.00
73700;BME280;62005;50.082;8.988;2024-02-28T03:07:34;100808.00;;;3.52;100.00
73700;BME280;62005;50.082;8.988;2024-02-28T03:10:00;100826.69;;;3.60;100.00
73700;BME280;62005;50.082;8.988;2024-02-28T03:12:25;100836.03;;;3.56;100.00
73700;BME280;62005;50.082;8.988;2024-02-28T03:14:51;100841.38;;;3.56;100.00
73700;BME280;62005;50.082;8.988;2024-02-28T03:17:16;100843.72;;;3.51;100.00
73700;BME280;62005;50.082;8.988;2024-02-28T03:19:42;100842.06;;;3.50;99.97
73700;BME280;62005;50.082;8.988;2024-02-28T03:22:07;100849.06;;;3.51;100.00
73700;BME280;62005;50.082;8.988;2024-02-28T03:24:33;100846.91;;;3.46;100.00
73700;BME280;62005;50.082;8.988;2024-02-28T03:27:04;100861.91;;;3.47;100.00
73700;BME280;62005;50.082;8.988;2024-02-28T03:29:29;100856.72;;;3.46;100.00
73700;BME280;62005;50.082;8.988;2024-02-28T03:31:55;100852.41;;;3.37;99.74
73700;BME280;62005;50.082;8.988;2024-02-28T03:34:21;100860.25;;;3.38;100.00
73700;BME280;62005;50.082;8.988;2024-02-28T03:36:46;100850.19;;;3.32;99.80
73700;BME280;62005;50.082;8.988;2024-02-28T03:39:12;100854.03;;;3.30;100.00
73700;BME280;62005;50.082;8.988;2024-02-28T03:41:38;100863.72;;;3.31;100.00
73700;BME280;62005;50.082;8.988;2024-02-28T03:44:04;100869.06;;;3.31;100.00
73700;BME280;62005;50.082;8.988;2024-02-28T03:46:29;100868.09;;;3.32;100.00
73700;BME280;62005;50.082;8.988;2024-02-28T03:48:55;100870.75;;;3.32;100.00
73700;BME280;62005;50.082;8.988;2024-02-28T03:51:20;100862.72;;;3.24;100.00
73700;BME280;62005;50.082;8.988;2024-02-28T03:53:45;100859.38;;;3.22;100.00
73700;BME280;62005;50.082;8.988;2024-02-28T03:56:11;100868.06;;;3.24;100.00
73700;BME280;62005;50.082;8.988;2024-02-28T03:58:37;100882.06;;;3.26;100.00
73700;BME280;62005;50.082;8.988;2024-02-28T04:01:02;100884.09;;;3.24;100.00
73700;BME280;62005;50.082;8.988;2024-02-28T04:03:27;100878.06;;;3.14;100.00
73700;BME280;62005;50.082;8.988;2024-02-28T04:05:53;100897.09;;;3.19;100.00
73700;BME280;62005;50.082;8.988;2024-02-28T04:08:18;100879.19;;;3.11;100.00
73700;BME280;62005;50.082;8.988;2024-02-28T04:10:43;100891.56;;;3.12;99.93
73700;BME280;62005;50.082;8.988;2024-02-28T04:13:09;100890.22;;;3.08;99.91
73700;BME280;62005;50.082;8.988;2024-02-28T04:15:34;100894.19;;;3.04;100.00
73700;BME280;62005;50.082;8.988;2024-02-28T04:18:00;100902.88;;;3.06;100.00
73700;BME280;62005;50.082;8.988;2024-02-28T04:20:25;100893.69;;;3.01;100.00
73700;BME280;62005;50.082;8.988;2024-02-28T04:22:51;100900.72;;;3.02;100.00
73700;BME280;62005;50.082;8.988;2024-02-28T04:25:16;100904.06;;;3.04;99.74
73700;BME280;62005;50.082;8.988;2024-02-28T04:27:41;100905.38;;;3.00;99.89
73700;BME280;62005;50.082;8.988;2024-02-28T04:30:07;100891.81;;;2.93;100.00
73700;BME280;62005;50.082;8.988;2024-02-28T04:32:33;100892.66;;;2.94;100.00
73700;BME280;62005;50.082;8.988;2024-02-28T04:34:58;100899.34;;;2.98;100.00
73700;BME280;62005;50.082;8.988;2024-02-28T04:37:23;100882.94;;;2.85;100.00
73700;BME280;62005;50.082;8.988;2024-02-28T04:39:49;100881.97;;;2.86;100.00
73700;BME280;62005;50.082;8.988;2024-02-28T04:42:16;100899.31;;;2.90;100.00
73700;BME280;62005;50.082;8.988;2024-02-28T04:44:41;100897.97;;;2.86;100.00
73700;BME280;62005;50.082;8.988;2024-02-28T04:47:07;100896.94;;;2.79;100.00
73700;BME280;62005;50.082;8.988;2024-02-28T04:49:32;100893.22;;;2.72;100.00
73700;BME280;62005;50.082;8.988;2024-02-28T04:51:58;100908.41;;;2.71;100.00
73700;BME280;62005;50.082;8.988;2024-02-28T04:54:24;100921.75;;;2.71;100.00
73700;BME280;62005;50.082;8.988;2024-02-28T04:56:49;100927.25;;;2.69;100.00
73700;BME280;62005;50.082;8.988;2024-02-28T04:59:16;100940.22;;;2.64;100.00
73700;BME280;62005;50.082;8.988;2024-02-28T05:01:41;100940.53;;;2.61;100.00
73700;BME280;62005;50.082;8.988;2024-02-28T05:04:08;100947.25;;;2.65;100.00
73700;BME280;62005;50.082;8.988;2024-02-28T05:06:34;100956.22;;;2.64;100.00
73700;BME280;62005;50.082;8.988;2024-02-28T05:09:00;100956.88;;;2.58;100.00
73700;BME280;62005;50.082;8.988;2024-02-28T05:11:25;100945.47;;;2.48;100.00
73700;BME280;62005;50.082;8.988;2024-02-28T05:13:51;100960.88;;;2.54;100.00
73700;BME280;62005;50.082;8.988;2024-02-28T05:16:16;100970.16;;;2.50;100.00
73700;BME280;62005;50.082;8.988;2024-02-28T05:18:44;100973.00;;;2.49;100.00
73700;BME280;62005;50.082;8.988;2024-02-28T05:21:10;100967.44;;;2.42;100.00
73700;BME280;62005;50.082;8.988;2024-02-28T05:23:36;100963.75;;;2.43;100.00
73700;BME280;62005;50.082;8.988;2024-02-28T05:26:02;100970.25;;;2.41;100.00
73700;BME280;62005;50.082;8.988;2024-02-28T05:28:32;100971.72;;;2.35;100.00
73700;BME280;62005;50.082;8.988;2024-02-28T05:30:58;100976.19;;;2.35;100.00
73700;BME280;62005;50.082;8.988;2024-02-28T05:33:25;100956.41;;;2.20;100.00
73700;BME280;62005;50.082;8.988;2024-02-28T05:35:50;100969.84;;;2.28;99.84
73700;BME280;62005;50.082;8.988;2024-02-28T05:38:16;100981.63;;;2.25;99.86
73700;BME280;62005;50.082;8.988;2024-02-28T05:40:41;100976.94;;;2.19;100.00
73700;BME280;62005;50.082;8.988;2024-02-28T05:43:07;100978.91;;;2.17;100.00
73700;BME280;62005;50.082;8.988;2024-02-28T05:45:32;100972.19;;;2.13;100.00
73700;BME280;62005;50.082;8.988;2024-02-28T05:47:58;100976.75;;;2.03;100.00
73700;BME280;62005;50.082;8.988;2024-02-28T05:50:24;100996.13;;;2.05;100.00
73700;BME280;62005;50.082;8.988;2024-02-28T05:52:50;100981.66;;;1.90;100.00
73700;BME280;62005;50.082;8.988;2024-02-28T05:55:15;100998.72;;;1.97;100.00
73700;BME280;62005;50.082;8.988;2024-02-28T05:57:41;100998.72;;;1.97;100.00
73700;BME280;62005;50.082;8.988;2024-02-28T06:00:07;100999.66;;;1.88;100.00
73700;BME280;62005;50.082;8.988;2024-02-28T06:02:38;101017.00;;;1.92;100.00
73700;BME280;62005;50.082;8.988;2024-02-28T06:05:03;101016.16;;;1.92;100.00
73700;BME280;62005;50.082;8.988;2024-02-28T06:07:30;101020.34;;;1.94;100.00
73700;BME280;62005;50.082;8.988;2024-02-28T06:09:55;101022.84;;;1.96;100.00
73700;BME280;62005;50.082;8.988;2024-02-28T06:12:20;101022.63;;;1.89;100.00
73700;BME280;62005;50.082;8.988;2024-02-28T06:14:46;101034.69;;;1.93;100.00
73700;BME280;62005;50.082;8.988;2024-02-28T06:17:11;101032.97;;;1.92;100.00
73700;BME280;62005;50.082;8.988;2024-02-28T06:19:36;101040.81;;;1.94;100.00
73700;BME280;62005;50.082;8.988;2024-02-28T06:22:02;101036.66;;;1.91;100.00
73700;BME280;62005;50.082;8.988;2024-02-28T06:24:27;101046.41;;;2.00;100.00
73700;BME280;62005;50.082;8.988;2024-02-28T06:26:53;101022.94;;;1.86;100.00
73700;BME280;62005;50.082;8.988;2024-02-28T06:29:18;101044.72;;;1.99;100.00
73700;BME280;62005;50.082;8.988;2024-02-28T06:31:50;101049.44;;;2.05;100.00
73700;BME280;62005;50.082;8.988;2024-02-28T06:34:15;101051.13;;;2.06;100.00
73700;BME280;62005;50.082;8.988;2024-02-28T06:36:40;101050.75;;;2.01;100.00
73700;BME280;62005;50.082;8.988;2024-02-28T06:39:06;101048.91;;;2.02;100.00
73700;BME280;62005;50.082;8.988;2024-02-28T06:41:31;101068.19;;;2.13;100.00
73700;BME280;62005;50.082;8.988;2024-02-28T06:43:56;101064.25;;;2.17;100.00
73700;BME280;62005;50.082;8.988;2024-02-28T06:46:22;101057.81;;;2.10;100.00
73700;BME280;62005;50.082;8.988;2024-02-28T06:48:47;101063.53;;;2.15;100.00
73700;BME280;62005;50.082;8.988;2024-02-28T06:51:16;101075.97;;;2.24;100.00
73700;BME280;62005;50.082;8.988;2024-02-28T06:53:41;101069.72;;;2.33;100.00
73700;BME280;62005;50.082;8.988;2024-02-28T06:56:07;101073.00;;;2.45;100.00
73700;BME280;62005;50.082;8.988;2024-02-28T06:58:32;101060.81;;;2.42;100.00
73700;BME280;62005;50.082;8.988;2024-02-28T07:00:57;101078.63;;;2.59;100.00
73700;BME280;62005;50.082;8.988;2024-02-28T07:03:23;101076.69;;;2.69;100.00
73700;BME280;62005;50.082;8.988;2024-02-28T07:05:48;101082.78;;;2.80;100.00
73700;BME280;62005;50.082;8.988;2024-02-28T07:08:13;101085.22;;;2.91;100.00
73700;BME280;62005;50.082;8.988;2024-02-28T07:10:39;101084.28;;;3.00;100.00
73700;BME280;62005;50.082;8.988;2024-02-28T07:13:08;101082.50;;;3.08;100.00
73700;BME280;62005;50.082;8.988;2024-02-28T07:15:34;101074.00;;;3.13;100.00
73700;BME280;62005;50.082;8.988;2024-02-28T07:17:59;101096.31;;;3.29;100.00
73700;BME280;62005;50.082;8.988;2024-02-28T07:20:24;101085.31;;;3.32;100.00
73700;BME280;62005;50.082;8.988;2024-02-28T07:22:50;101088.53;;;3.44;100.00
73700;BME280;62005;50.082;8.988;2024-02-28T07:25:15;101092.75;;;3.46;100.00
73700;BME280;62005;50.082;8.988;2024-02-28T07:27:40;101082.22;;;3.45;100.00
73700;BME280;62005;50.082;8.988;2024-02-28T07:30:06;101085.94;;;3.52;100.00
73700;BME280;62005;50.082;8.988;2024-02-28T07:32:32;101087.47;;;3.62;100.00
73700;BME280;62005;50.082;8.988;2024-02-28T07:35:00;101098.69;;;3.66;100.00
73700;BME280;62005;50.082;8.988;2024-02-28T07:37:26;101111.75;;;3.77;100.00
73700;BME280;62005;50.082;8.988;2024-02-28T07:39:51;101097.41;;;3.78;100.00
73700;BME280;62005;50.082;8.988;2024-02-28T07:42:17;101115.81;;;3.89;100.00
73700;BME280;62005;50.082;8.988;2024-02-28T07:44:43;101114.00;;;3.89;100.00
73700;BME280;62005;50.082;8.988;2024-02-28T07:47:08;101098.72;;;3.82;100.00
73700;BME280;62005;50.082;8.988;2024-02-28T07:49:34;101103.78;;;3.85;100.00
73700;BME280;62005;50.082;8.988;2024-02-28T07:51:59;101114.00;;;3.89;100.00
73700;BME280;62005;50.082;8.988;2024-02-28T07:54:24;101116.84;;;3.96;100.00
73700;BME280;62005;50.082;8.988;2024-02-28T07:56:50;101118.50;;;3.97;100.00
73700;BME280;62005;50.082;8.988;2024-02-28T07:59:15;101128.59;;;4.03;100.00
73700;BME280;62005;50.082;8.988;2024-02-28T08:01:41;101118.69;;;4.03;100.00
73700;BME280;62005;50.082;8.988;2024-02-28T08:04:06;101122.25;;;4.12;100.00
73700;BME280;62005;50.082;8.988;2024-02-28T08:06:32;101123.94;;;4.13;100.00
73700;BME280;62005;50.082;8.988;2024-02-28T08:08:58;101111.38;;;4.14;100.00
73700;BME280;62005;50.082;8.988;2024-02-28T08:11:23;101110.75;;;4.20;100.00
73700;BME280;62005;50.082;8.988;2024-02-28T08:13:50;101101.19;;;4.09;100.00
73700;BME280;62005;50.082;8.988;2024-02-28T08:16:16;101083.47;;;4.08;100.00
73700;BME280;62005;50.082;8.988;2024-02-28T08:18:41;101114.59;;;4.25;100.00
73700;BME280;62005;50.082;8.988;2024-02-28T08:21:07;101105.22;;;4.21;100.00
73700;BME280;62005;50.082;8.988;2024-02-28T08:23:33;101104.22;;;4.30;100.00
73700;BME280;62005;50.082;8.988;2024-02-28T08:25:59;101106.91;;;4.38;100.00
73700;BME280;62005;50.082;8.988;2024-02-28T08:28:24;101120.00;;;4.49;100.00
73700;BME280;62005;50.082;8.988;2024-02-28T08:30:49;101093.53;;;4.38;100.00
73700;BME280;62005;50.082;8.988;2024-02-28T08:33:15;101110.63;;;4.53;100.00
73700;BME280;62005;50.082;8.988;2024-02-28T08:35:40;101127.03;;;4.66;100.00
73700;BME280;62005;50.082;8.988;2024-02-28T08:38:05;101128.03;;;4.73;100.00
73700;BME280;62005;50.082;8.988;2024-02-28T08:40:31;101111.28;;;4.79;100.00
73700;BME280;62005;50.082;8.988;2024-02-28T08:42:56;101114.66;;;4.89;100.00
73700;BME280;62005;50.082;8.988;2024-02-28T08:45:22;101112.66;;;4.91;100.00
73700;BME280;62005;50.082;8.988;2024-02-28T08:47:48;101114.66;;;4.97;100.00
73700;BME280;62005;50.082;8.988;2024-02-28T08:50:14;101117.00;;;5.08;100.00
73700;BME280;62005;50.082;8.988;2024-02-28T08:52:39;101118.31;;;5.12;100.00
73700;BME280;62005;50.082;8.988;2024-02-28T08:55:04;101116.81;;;5.18;100.00
73700;BME280;62005;50.082;8.988;2024-02-28T08:57:30;101110.59;;;5.17;100.00
73700;BME280;62005;50.082;8.988;2024-02-28T08:59:55;101132.34;;;5.30;100.00
73700;BME280;62005;50.082;8.988;2024-02-28T09:02:21;101135.06;;;5.39;100.00
73700;BME280;62005;50.082;8.988;2024-02-28T09:04:47;101113.59;;;5.39;100.00
73700;BME280;62005;50.082;8.988;2024-02-28T09:07:17;101118.56;;;5.58;100.00
73700;BME280;62005;50.082;8.988;2024-02-28T09:09:46;101121.56;;;5.63;100.00
73700;BME280;62005;50.082;8.988;2024-02-28T09:12:11;101115.19;;;5.64;100.00
73700;BME280;62005;50.082;8.988;2024-02-28T09:14:38;101133.94;;;5.80;100.00
73700;BME280;62005;50.082;8.988;2024-02-28T09:17:03;101135.59;;;5.89;100.00
73700;BME280;62005;50.082;8.988;2024-02-28T09:19:30;101126.22;;;5.85;100.00
73700;BME280;62005;50.082;8.988;2024-02-28T09:21:55;101135.94;;;5.86;100.00
73700;BME280;62005;50.082;8.988;2024-02-28T09:24:21;101149.50;;;5.92;100.00
73700;BME280;62005;50.082;8.988;2024-02-28T09:26:46;101144.63;;;5.96;100.00
73700;BME280;62005;50.082;8.988;2024-02-28T09:29:11;101137.91;;;5.92;100.00
73700;BME280;62005;50.082;8.988;2024-02-28T09:31:37;101148.47;;;6.01;100.00
73700;BME280;62005;50.082;8.988;2024-02-28T09:34:02;101147.25;;;6.04;100.00
73700;BME280;62005;50.082;8.988;2024-02-28T09:36:33;101158.00;;;6.04;100.00
73700;BME280;62005;50.082;8.988;2024-02-28T09:38:58;101154.31;;;6.05;100.00
73700;BME280;62005;50.082;8.988;2024-02-28T09:41:24;101154.97;;;6.07;100.00
73700;BME280;62005;50.082;8.988;2024-02-28T09:43:52;101164.66;;;6.16;100.00
73700;BME280;62005;50.082;8.988;2024-02-28T09:46:17;101158.13;;;6.10;100.00
73700;BME280;62005;50.082;8.988;2024-02-28T09:48:45;101172.84;;;6.22;100.00
73700;BME280;62005;50.082;8.988;2024-02-28T09:51:14;101173.34;;;6.26;100.00
73700;BME280;62005;50.082;8.988;2024-02-28T09:53:40;101175.34;;;6.24;98.92
73700;BME280;62005;50.082;8.988;2024-02-28T09:56:06;101176.34;;;6.31;98.95
73700;BME280;62005;50.082;8.988;2024-02-28T09:58:32;101174.31;;;6.33;98.70
73700;BME280;62005;50.082;8.988;2024-02-28T10:01:02;101181.84;;;6.37;99.06
73700;BME280;62005;50.082;8.988;2024-02-28T10:03:31;101175.28;;;6.40;99.07
73700;BME280;62005;50.082;8.988;2024-02-28T10:05:57;101177.97;;;6.40;98.29
73700;BME280;62005;50.082;8.988;2024-02-28T10:08:23;101187.84;;;6.47;98.87
73700;BME280;62005;50.082;8.988;2024-02-28T10:10:49;101191.34;;;6.48;98.77
73700;BME280;62005;50.082;8.988;2024-02-28T10:13:18;101192.00;;;6.50;98.45
73700;BME280;62005;50.082;8.988;2024-02-28T10:15:44;101183.28;;;6.48;98.61
73700;BME280;62005;50.082;8.988;2024-02-28T10:18:10;101201.09;;;6.49;97.25
73700;BME280;62005;50.082;8.988;2024-02-28T10:20:35;101203.38;;;6.60;97.45
73700;BME280;62005;50.082;8.988;2024-02-28T10:23:05;101197.81;;;6.61;97.41
73700;BME280;62005;50.082;8.988;2024-02-28T10:25:31;101196.47;;;6.66;97.67
73700;BME280;62005;50.082;8.988;2024-02-28T10:28:01;101198.25;;;6.73;96.91
73700;BME280;62005;50.082;8.988;2024-02-28T10:30:27;101188.09;;;6.83;98.38
73700;BME280;62005;50.082;8.988;2024-02-28T10:32:52;101188.34;;;6.96;99.45
73700;BME280;62005;50.082;8.988;2024-02-28T10:35:18;101188.28;;;7.04;97.66
73700;BME280;62005;50.082;8.988;2024-02-28T10:37:44;101195.28;;;7.13;97.64
73700;BME280;62005;50.082;8.988;2024-02-28T10:40:13;101189.16;;;7.19;97.72
73700;BME280;62005;50.082;8.988;2024-02-28T10:42:42;101194.31;;;7.29;96.38
73700;BME280;62005;50.082;8.988;2024-02-28T10:45:09;101195.13;;;7.29;96.15
73700;BME280;62005;50.082;8.988;2024-02-28T10:47:38;101195.34;;;7.42;95.63
73700;BME280;62005;50.082;8.988;2024-02-28T10:50:04;101194.44;;;7.50;96.81
73700;BME280;62005;50.082;8.988;2024-02-28T10:52:33;101195.22;;;7.58;95.57
73700;BME280;62005;50.082;8.988;2024-02-28T10:54:59;101192.88;;;7.55;94.61
73700;BME280;62005;50.082;8.988;2024-02-28T10:57:26;101190.75;;;7.65;95.14
73700;BME280;62005;50.082;8.988;2024-02-28T10:59:53;101192.91;;;7.70;94.26
73700;BME280;62005;50.082;8.988;2024-02-28T11:02:20;101189.56;;;7.68;94.53
73700;BME280;62005;50.082;8.988;2024-02-28T11:04:45;101199.03;;;7.78;94.08
73700;BME280;62005;50.082;8.988;2024-02-28T11:07:11;101183.16;;;7.83;93.90
73700;BME280;62005;50.082;8.988;2024-02-28T11:09:36;101199.78;;;7.87;92.78
73700;BME280;62005;50.082;8.988;2024-02-28T11:12:04;101198.22;;;7.92;93.16
73700;BME280;62005;50.082;8.988;2024-02-28T11:14:29;101201.94;;;7.91;91.69
73700;BME280;62005;50.082;8.988;2024-02-28T11:17:04;101200.25;;;7.90;92.06
73700;BME280;62005;50.082;8.988;2024-02-28T11:19:31;101203.97;;;7.89;92.52
73700;BME280;62005;50.082;8.988;2024-02-28T11:21:58;101196.38;;;7.93;93.20
73700;BME280;62005;50.082;8.988;2024-02-28T11:24:28;101205.81;;;8.04;92.60
73700;BME280;62005;50.082;8.988;2024-02-28T11:26:53;101204.53;;;8.00;92.37
73700;BME280;62005;50.082;8.988;2024-02-28T11:29:26;101192.53;;;8.02;92.37
73700;BME280;62005;50.082;8.988;2024-02-28T11:31:53;101203.78;;;8.06;92.12
73700;BME280;62005;50.082;8.988;2024-02-28T11:34:19;101198.84;;;8.09;92.07
73700;BME280;62005;50.082;8.988;2024-02-28T11:36:49;101192.63;;;8.09;92.18
73700;BME280;62005;50.082;8.988;2024-02-28T11:39:15;101199.88;;;8.23;92.17
73700;BME280;62005;50.082;8.988;2024-02-28T11:41:41;101188.94;;;8.24;91.65
73700;BME280;62005;50.082;8.988;2024-02-28T11:44:07;101203.78;;;8.35;90.92
73700;BME280;62005;50.082;8.988;2024-02-28T11:46:32;101202.13;;;8.34;90.13
73700;BME280;62005;50.082;8.988;2024-02-28T11:48:58;101197.56;;;8.34;90.22
73700;BME280;62005;50.082;8.988;2024-02-28T11:51:24;101190.16;;;8.36;89.83
73700;BME280;62005;50.082;8.988;2024-02-28T11:53:50;101201.00;;;8.43;90.59
73700;BME280;62005;50.082;8.988;2024-02-28T11:56:15;101186.03;;;8.40;89.27
73700;BME280;62005;50.082;8.988;2024-02-28T11:58:54;101191.50;;;8.47;89.45
73700;BME280;62005;50.082;8.988;2024-02-28T12:01:37;101192.81;;;8.51;88.71
73700;BME280;62005;50.082;8.988;2024-02-28T12:04:04;101185.34;;;8.53;89.45
73700;BME280;62005;50.082;8.988;2024-02-28T12:06:34;101183.97;;;8.57;88.39
73700;BME280;62005;50.082;8.988;2024-02-28T12:08:59;101180.22;;;8.58;86.68
73700;BME280;62005;50.082;8.988;2024-02-28T12:11:25;101167.22;;;8.61;88.02
73700;BME280;62005;50.082;8.988;2024-02-28T12:13:54;101159.78;;;8.63;88.76
73700;BME280;62005;50.082;8.988;2024-02-28T12:16:22;101166.09;;;8.70;88.68
73700;BME280;62005;50.082;8.988;2024-02-28T12:18:48;101161.53;;;8.71;88.90
73700;BME280;62005;50.082;8.988;2024-02-28T12:21:14;101170.75;;;8.83;88.94
73700;BME280;62005;50.082;8.988;2024-02-28T12:23:39;101168.31;;;8.88;88.59
73700;BME280;62005;50.082;8.988;2024-02-28T12:26:05;101150.50;;;8.87;87.97
73700;BME280;62005;50.082;8.988;2024-02-28T12:28:30;101152.59;;;8.91;87.78
73700;BME280;62005;50.082;8.988;2024-02-28T12:30:55;101151.25;;;9.02;88.23
73700;BME280;62005;50.082;8.988;2024-02-28T12:33:21;101143.56;;;8.99;87.38
73700;BME280;62005;50.082;8.988;2024-02-28T12:35:48;101132.38;;;9.02;86.21
73700;BME280;62005;50.082;8.988;2024-02-28T12:38:13;101134.94;;;9.10;86.83
73700;BME280;62005;50.082;8.988;2024-02-28T12:40:40;101137.09;;;9.21;86.27
73700;BME280;62005;50.082;8.988;2024-02-28T12:43:07;101137.09;;;9.21;85.17
73700;BME280;62005;50.082;8.988;2024-02-28T12:45:32;101130.06;;;9.20;85.80
73700;BME280;62005;50.082;8.988;2024-02-28T12:47:58;101131.31;;;9.24;85.75